createdAt,value
2018-06-09T00:00:02.835Z,55.11
2018-06-09T00:01:02.776Z,55.21
2018-06-09T00:02:02.713Z,54.99
2018-06-09T00:03:02.662Z,55.51
2018-06-09T00:04:02.589Z,55.31
2018-06-09T00:05:02.558Z,55.70
2018-06-09T00:06:02.481Z,55.70
2018-06-09T00:07:02.434Z,55.57
2018-06-09T00:08:02.347Z,55.19
2018-06-09T00:09:02.290Z,55.29
2018-06-09T00:10:02.219Z,55.09
2018-06-09T00:11:02.187Z,55.67
2018-06-09T00:12:02.105Z,55.67
2018-06-09T00:13:02.038Z,55.67
2018-06-09T00:14:01.998Z,55.96
2018-06-09T00:15:01.913Z,55.77
2018-06-09T00:16:01.858Z,55.57
2018-06-09T00:17:01.802Z,55.38
2018-06-09T00:18:01.738Z,55.60
2018-06-09T00:19:01.669Z,56.05
2018-06-09T00:20:01.609Z,55.96
2018-06-09T00:21:01.554Z,55.99
2018-06-09T00:22:01.479Z,55.96
2018-06-09T00:23:01.428Z,56.09
2018-06-09T00:24:01.351Z,55.89
2018-06-09T00:25:01.354Z,56.05
2018-06-09T00:26:01.242Z,56.05
2018-06-09T00:27:01.173Z,55.60
2018-06-09T00:28:01.120Z,55.70
2018-06-09T00:29:01.056Z,55.47
2018-06-09T00:30:00.992Z,55.47
2018-06-09T00:31:00.931Z,55.38
2018-06-09T00:32:00.865Z,54.99
2018-06-09T00:33:00.801Z,54.32
2018-06-09T00:34:00.746Z,53.03
2018-06-09T00:35:00.695Z,52.94
2018-06-09T00:36:00.619Z,51.87
2018-06-09T00:37:00.547Z,50.81
2018-06-09T00:38:00.491Z,48.66
2018-06-09T00:39:00.426Z,45.94
2018-06-09T00:40:00.402Z,44.39
2018-06-09T00:41:00.311Z,43.43
2018-06-09T00:42:00.254Z,43.14
2018-06-09T00:43:00.185Z,43.16
2018-06-09T00:44:00.125Z,44.32
2018-06-09T00:45:00.055Z,44.51
2018-06-09T00:46:00.008Z,45.57
2018-06-09T00:46:59.930Z,45.79
2018-06-09T00:47:59.863Z,46.56
2018-06-09T00:48:59.808Z,47.05
2018-06-09T00:49:59.759Z,47.33
2018-06-09T00:50:59.681Z,47.53
2018-06-09T00:51:59.634Z,48.30
2018-06-09T00:52:59.561Z,48.11
2018-06-09T00:53:59.503Z,47.81
2018-06-09T00:54:59.498Z,48.49
2018-06-09T00:55:59.393Z,48.69
2018-06-09T00:56:59.327Z,48.49
2018-06-09T00:57:59.260Z,48.21
2018-06-09T00:58:59.195Z,48.79
2018-06-09T00:59:59.129Z,49.07
2018-06-09T01:00:59.066Z,49.17
2018-06-09T01:01:59.010Z,49.55
2018-06-09T01:02:58.947Z,49.85
2018-06-09T01:03:58.889Z,49.95
2018-06-09T01:04:58.826Z,50.23
2018-06-09T01:05:58.763Z,50.33
2018-06-09T01:06:58.701Z,50.43
2018-06-09T01:07:58.644Z,49.95
2018-06-09T01:08:58.573Z,50.04
2018-06-09T01:09:58.513Z,49.65
2018-06-09T01:10:58.451Z,50.43
2018-06-09T01:11:58.384Z,49.75
2018-06-09T01:12:58.332Z,50.43
2018-06-09T01:13:58.251Z,51.10
2018-06-09T01:14:58.203Z,50.71
2018-06-09T01:15:58.142Z,51.29
2018-06-09T01:16:58.079Z,50.62
2018-06-09T01:17:58.029Z,50.91
2018-06-09T01:18:57.951Z,50.91
2018-06-09T01:19:57.891Z,50.62
2018-06-09T01:20:57.817Z,51.20
2018-06-09T01:21:57.772Z,51.01
2018-06-09T01:22:57.701Z,51.01
2018-06-09T01:23:57.645Z,50.71
2018-06-09T01:24:57.589Z,50.52
2018-06-09T01:25:57.524Z,50.13
2018-06-09T01:26:57.481Z,49.95
2018-06-09T01:27:57.393Z,50.23
2018-06-09T01:28:57.327Z,50.13
2018-06-09T01:29:57.264Z,49.75
2018-06-09T01:30:57.208Z,49.07
2018-06-09T01:31:57.147Z,48.79
2018-06-09T01:32:57.074Z,47.31
2018-06-09T01:33:57.030Z,46.44
2018-06-09T01:34:56.951Z,45.38
2018-06-09T01:35:56.902Z,44.32
2018-06-09T01:36:56.832Z,44.12
2018-06-09T01:37:56.810Z,43.33
2018-06-09T01:38:56.713Z,42.58
2018-06-09T01:39:56.654Z,42.08
2018-06-09T01:40:56.583Z,42.19
2018-06-09T01:41:56.523Z,42.29
2018-06-09T01:42:56.462Z,40.82
2018-06-09T01:43:56.399Z,39.37
2018-06-09T01:44:56.384Z,38.21
2018-06-09T01:45:56.269Z,35.52
2018-06-09T01:46:56.212Z,32.23
2018-06-09T01:47:56.154Z,29.52
2018-06-09T01:48:56.081Z,27.11
2018-06-09T01:49:56.028Z,25.27
2018-06-09T01:50:55.972Z,23.34
2018-06-09T01:51:55.897Z,19.96
2018-06-09T01:52:55.828Z,17.07
2018-06-09T01:53:55.764Z,17.17
2018-06-09T01:54:55.711Z,16.49
2018-06-09T01:55:55.649Z,16.78
2018-06-09T01:56:55.596Z,17.07
2018-06-09T01:57:55.560Z,18.42
2018-06-09T01:58:55.466Z,20.16
2018-06-09T01:59:55.412Z,21.22
2018-06-09T02:00:55.336Z,23.35
2018-06-09T02:01:55.277Z,25.57
2018-06-09T02:02:55.203Z,26.15
2018-06-09T02:03:55.152Z,27.40
2018-06-09T02:04:55.092Z,27.80
2018-06-09T02:05:55.022Z,28.08
2018-06-09T02:06:54.959Z,28.95
2018-06-09T02:07:54.905Z,29.82
2018-06-09T02:08:54.824Z,29.53
2018-06-09T02:09:54.784Z,29.91
2018-06-09T02:10:54.713Z,28.28
2018-06-09T02:11:54.650Z,27.89
2018-06-09T02:12:54.583Z,26.14
2018-06-09T02:13:54.532Z,25.27
2018-06-09T02:14:54.468Z,25.18
2018-06-09T02:15:54.399Z,25.86
2018-06-09T02:16:54.337Z,26.82
2018-06-09T02:17:54.269Z,27.89
2018-06-09T02:18:54.212Z,29.53
2018-06-09T02:19:54.144Z,30.49
2018-06-09T02:20:54.096Z,31.75
2018-06-09T02:21:54.030Z,32.71
2018-06-09T02:22:53.961Z,33.70
2018-06-09T02:23:53.893Z,34.76
2018-06-09T02:24:53.837Z,35.34
2018-06-09T02:25:53.777Z,35.92
2018-06-09T02:26:53.709Z,36.40
2018-06-09T02:27:53.651Z,36.40
2018-06-09T02:28:53.587Z,37.56
2018-06-09T02:29:53.525Z,37.95
2018-06-09T02:30:53.463Z,38.14
2018-06-09T02:31:53.397Z,38.23
2018-06-09T02:32:53.325Z,38.62
2018-06-09T02:33:53.281Z,38.93
2018-06-09T02:34:53.213Z,39.32
2018-06-09T02:35:53.164Z,39.61
2018-06-09T02:36:53.084Z,39.90
2018-06-09T02:37:53.029Z,40.38
2018-06-09T02:38:52.962Z,40.94
2018-06-09T02:39:52.908Z,41.25
2018-06-09T02:40:52.829Z,41.25
2018-06-09T02:41:52.789Z,41.54
2018-06-09T02:42:52.714Z,41.83
2018-06-09T02:43:52.665Z,42.31
2018-06-09T02:44:52.588Z,42.60
2018-06-09T02:45:52.534Z,42.89
2018-06-09T02:46:52.460Z,43.66
2018-06-09T02:47:52.408Z,44.05
2018-06-09T02:48:52.346Z,44.34
2018-06-09T02:49:52.281Z,44.15
2018-06-09T02:50:52.226Z,44.15
2018-06-09T02:51:52.170Z,44.92
2018-06-09T02:52:52.090Z,44.92
2018-06-09T02:53:52.036Z,45.59
2018-06-09T02:54:51.965Z,45.50
2018-06-09T02:55:51.913Z,45.40
2018-06-09T02:56:51.847Z,45.50
2018-06-09T02:57:51.815Z,45.50
2018-06-09T02:58:51.711Z,45.40
2018-06-09T02:59:51.646Z,45.69
2018-06-09T03:00:51.599Z,45.98
2018-06-09T03:01:51.544Z,45.89
2018-06-09T03:02:51.478Z,46.08
2018-06-09T03:03:51.416Z,46.08
2018-06-09T03:04:51.361Z,46.56
2018-06-09T03:05:51.297Z,46.37
2018-06-09T03:06:51.219Z,46.27
2018-06-09T03:07:51.167Z,46.17
2018-06-09T03:08:51.106Z,46.17
2018-06-09T03:09:51.047Z,46.56
2018-06-09T03:10:50.965Z,46.37
2018-06-09T03:11:50.915Z,46.27
2018-06-09T03:12:50.848Z,45.79
2018-06-09T03:13:50.794Z,45.59
2018-06-09T03:14:50.719Z,44.92
2018-06-09T03:15:50.713Z,44.34
2018-06-09T03:16:50.604Z,43.95
2018-06-09T03:17:50.539Z,43.18
2018-06-09T03:18:50.486Z,42.89
2018-06-09T03:19:50.417Z,41.83
2018-06-09T03:20:50.359Z,40.38
2018-06-09T03:21:50.297Z,39.32
2018-06-09T03:22:50.245Z,38.93
2018-06-09T03:23:50.171Z,38.16
2018-06-09T03:24:50.100Z,38.64
2018-06-09T03:25:50.037Z,37.38
2018-06-09T03:26:49.980Z,37.00
2018-06-09T03:27:49.922Z,36.52
2018-06-09T03:28:49.860Z,35.26
2018-06-09T03:29:49.801Z,34.10
2018-06-09T03:30:49.743Z,32.56
2018-06-09T03:31:49.670Z,31.78
2018-06-09T03:32:49.612Z,30.72
2018-06-09T03:33:49.552Z,30.33
2018-06-09T03:34:49.470Z,29.56
2018-06-09T03:35:49.428Z,29.36
2018-06-09T03:36:49.360Z,25.39
2018-06-09T03:37:49.306Z,21.92
2018-06-09T03:38:49.240Z,18.05
2018-06-09T03:39:49.172Z,12.93
2018-06-09T03:40:49.116Z,11.97
2018-06-09T03:41:49.048Z,6.46
2018-06-09T03:42:48.995Z,5.50
2018-06-09T03:43:48.917Z,0.57
2018-06-09T03:44:48.864Z,0.00
2018-06-09T03:45:48.826Z,0.00
2018-06-09T03:46:48.740Z,0.00
2018-06-09T03:47:48.696Z,0.00
2018-06-09T03:48:48.648Z,0.00
2018-06-09T03:49:48.560Z,0.00
2018-06-09T03:50:48.498Z,0.00
2018-06-09T03:51:48.437Z,0.00
2018-06-09T03:52:48.364Z,0.00
2018-06-09T03:53:48.289Z,0.00
2018-06-09T03:54:48.241Z,0.00
2018-06-09T03:55:48.174Z,0.00
2018-06-09T03:56:48.120Z,0.00
2018-06-09T03:57:48.074Z,0.00
2018-06-09T03:58:47.986Z,0.00
2018-06-09T03:59:47.948Z,0.00
2018-06-09T04:00:47.870Z,0.00
2018-06-09T04:01:47.815Z,0.00
2018-06-09T04:02:47.742Z,0.00
2018-06-09T04:03:47.676Z,0.09
2018-06-09T04:04:47.606Z,0.00
2018-06-09T04:05:47.557Z,1.64
2018-06-09T04:06:47.499Z,2.70
2018-06-09T04:07:47.431Z,2.89
2018-06-09T04:08:47.381Z,3.47
2018-06-09T04:09:47.338Z,3.38
2018-06-09T04:10:47.235Z,1.15
2018-06-09T04:11:47.173Z,0.00
2018-06-09T04:12:47.116Z,0.00
2018-06-09T04:13:47.051Z,0.00
2018-06-09T04:14:46.986Z,0.00
2018-06-09T04:15:46.935Z,0.00
2018-06-09T04:16:46.873Z,0.00
2018-06-09T04:17:46.813Z,0.29
2018-06-09T04:18:46.740Z,0.87
2018-06-09T04:19:46.679Z,0.00
2018-06-09T04:20:46.608Z,0.00
2018-06-09T04:21:46.561Z,0.19
2018-06-09T04:22:46.497Z,0.00
2018-06-09T04:23:46.445Z,0.96
2018-06-09T04:24:46.362Z,0.87
2018-06-09T04:25:46.308Z,1.73
2018-06-09T04:26:46.238Z,2.51
2018-06-09T04:27:46.184Z,3.19
2018-06-09T04:28:46.111Z,3.47
2018-06-09T04:29:46.048Z,3.86
2018-06-09T04:30:46.002Z,3.86
2018-06-09T04:31:45.924Z,4.15
2018-06-09T04:32:45.868Z,4.15
2018-06-09T04:33:45.810Z,4.63
2018-06-09T04:34:45.740Z,4.63
2018-06-09T04:35:45.689Z,5.79
2018-06-09T04:36:45.642Z,5.40
2018-06-09T04:37:45.554Z,5.60
2018-06-09T04:38:45.493Z,5.31
2018-06-09T04:39:45.451Z,5.50
2018-06-09T04:40:45.370Z,4.73
2018-06-09T04:41:45.298Z,5.11
2018-06-09T04:42:45.248Z,5.60
2018-06-09T04:43:45.179Z,5.69
2018-06-09T04:44:45.110Z,6.27
2018-06-09T04:45:45.063Z,6.18
2018-06-09T04:46:44.990Z,6.27
2018-06-09T04:47:44.925Z,5.98
2018-06-09T04:48:44.873Z,6.08
2018-06-09T04:49:44.835Z,5.50
2018-06-09T04:50:44.734Z,5.40
2018-06-09T04:51:44.687Z,6.37
2018-06-09T04:52:44.626Z,6.18
2018-06-09T04:53:44.557Z,5.69
2018-06-09T04:54:44.495Z,5.11
2018-06-09T04:55:44.440Z,5.11
2018-06-09T04:56:44.364Z,2.80
2018-06-09T04:57:44.300Z,0.00
2018-06-09T04:58:44.235Z,0.00
2018-06-09T04:59:44.180Z,0.00
2018-06-09T05:00:44.129Z,0.00
2018-06-09T05:01:44.055Z,0.00
2018-06-09T05:02:43.996Z,0.00
2018-06-09T05:03:43.935Z,0.00
2018-06-09T05:04:43.878Z,0.00
2018-06-09T05:05:43.799Z,0.00
2018-06-09T05:06:43.753Z,0.00
2018-06-09T05:07:43.686Z,0.00
2018-06-09T05:08:43.627Z,0.00
2018-06-09T05:09:43.552Z,0.00
2018-06-09T05:10:43.502Z,0.00
2018-06-09T05:11:43.437Z,0.00
2018-06-09T05:12:43.380Z,0.00
2018-06-09T05:13:43.309Z,0.00
2018-06-09T05:14:43.257Z,0.00
2018-06-09T05:15:43.192Z,0.00
2018-06-09T05:16:43.118Z,0.29
2018-06-09T05:17:43.062Z,2.31
2018-06-09T05:18:43.041Z,2.70
2018-06-09T05:19:42.933Z,2.51
2018-06-09T05:20:42.885Z,0.67
2018-06-09T05:21:42.816Z,0.57
2018-06-09T05:22:42.753Z,0.09
2018-06-09T05:23:42.689Z,0.29
2018-06-09T05:24:42.683Z,0.00
2018-06-09T05:25:42.574Z,0.00
2018-06-09T05:26:42.506Z,0.00
2018-06-09T05:27:42.436Z,0.00
2018-06-09T05:28:42.379Z,0.00
2018-06-09T05:29:42.320Z,0.00
2018-06-09T05:30:42.281Z,0.00
2018-06-09T05:31:42.193Z,0.00
2018-06-09T05:32:42.120Z,0.00
2018-06-09T05:33:42.059Z,0.00
2018-06-09T05:34:41.998Z,0.00
2018-06-09T05:35:41.930Z,0.00
2018-06-09T05:36:41.872Z,0.00
2018-06-09T05:37:41.819Z,0.00
2018-06-09T05:38:41.753Z,0.00
2018-06-09T05:39:41.685Z,0.00
2018-06-09T05:40:41.625Z,0.00
2018-06-09T05:41:41.608Z,0.00
2018-06-09T05:42:41.504Z,0.00
2018-06-09T05:43:41.437Z,0.00
2018-06-09T05:44:41.391Z,0.00
2018-06-09T05:45:41.324Z,0.00
2018-06-09T05:46:41.246Z,0.00
2018-06-09T05:47:41.203Z,0.00
2018-06-09T05:48:41.125Z,0.00
2018-06-09T05:49:41.065Z,0.00
2018-06-09T05:50:41.015Z,2.12
2018-06-09T05:51:40.951Z,4.15
2018-06-09T05:52:40.882Z,5.98
2018-06-09T05:53:40.812Z,8.50
2018-06-09T05:54:40.769Z,10.72
2018-06-09T05:55:40.741Z,12.65
2018-06-09T05:56:40.648Z,13.13
2018-06-09T05:57:40.567Z,12.65
2018-06-09T05:58:40.511Z,12.37
2018-06-09T05:59:40.462Z,12.75
2018-06-09T06:00:40.389Z,13.62
2018-06-09T06:01:40.330Z,12.75
2018-06-09T06:02:40.263Z,13.13
2018-06-09T06:03:40.208Z,14.39
2018-06-09T06:04:40.147Z,14.59
2018-06-09T06:05:40.073Z,15.36
2018-06-09T06:06:40.043Z,16.14
2018-06-09T06:07:39.956Z,16.91
2018-06-09T06:08:39.892Z,16.04
2018-06-09T06:09:39.842Z,16.91
2018-06-09T06:10:39.795Z,17.40
2018-06-09T06:11:39.717Z,17.97
2018-06-09T06:12:39.650Z,17.59
2018-06-09T06:13:39.598Z,17.97
2018-06-09T06:14:39.532Z,17.68
2018-06-09T06:15:39.469Z,17.78
2018-06-09T06:16:39.420Z,18.46
2018-06-09T06:17:39.352Z,18.55
2018-06-09T06:18:39.287Z,17.88
2018-06-09T06:19:39.240Z,17.78
2018-06-09T06:20:39.157Z,17.40
2018-06-09T06:21:39.119Z,15.17
2018-06-09T06:22:39.046Z,15.46
2018-06-09T06:23:38.986Z,14.79
2018-06-09T06:24:38.921Z,15.95
2018-06-09T06:25:38.878Z,16.24
2018-06-09T06:26:38.809Z,15.95
2018-06-09T06:27:38.749Z,17.70
2018-06-09T06:28:38.675Z,18.67
2018-06-09T06:29:38.619Z,19.15
2018-06-09T06:30:38.559Z,20.61
2018-06-09T06:31:38.503Z,20.99
2018-06-09T06:32:38.441Z,20.12
2018-06-09T06:33:38.377Z,19.15
2018-06-09T06:34:38.324Z,18.66
2018-06-09T06:35:38.242Z,17.31
2018-06-09T06:36:38.207Z,18.66
2018-06-09T06:37:38.131Z,20.89
2018-06-09T06:38:38.073Z,22.83
2018-06-09T06:39:38.014Z,24.77
2018-06-09T06:40:37.953Z,25.83
2018-06-09T06:41:37.898Z,27.20
2018-06-09T06:42:37.842Z,28.36
2018-06-09T06:43:37.783Z,27.87
2018-06-09T06:44:37.702Z,28.75
2018-06-09T06:45:37.647Z,29.43
2018-06-09T06:46:37.585Z,30.00
2018-06-09T06:47:37.543Z,30.98
2018-06-09T06:48:37.467Z,31.84
2018-06-09T06:49:37.423Z,33.39
2018-06-09T06:50:37.356Z,34.65
2018-06-09T06:51:37.315Z,34.36
2018-06-09T06:52:37.225Z,33.69
2018-06-09T06:53:37.184Z,33.87
2018-06-09T06:54:37.119Z,35.91
2018-06-09T06:55:37.058Z,36.90
2018-06-09T06:56:37.033Z,37.36
2018-06-09T06:57:36.937Z,38.43
2018-06-09T06:58:36.864Z,39.22
2018-06-09T06:59:36.817Z,39.20
2018-06-09T07:00:36.763Z,38.53
2018-06-09T07:01:36.691Z,38.33
2018-06-09T07:02:36.637Z,38.62
2018-06-09T07:03:36.574Z,38.53
2018-06-09T07:04:36.505Z,38.12
2018-06-09T07:05:36.458Z,37.94
2018-06-09T07:06:36.390Z,38.53
2018-06-09T07:07:36.337Z,38.23
2018-06-09T07:08:36.271Z,39.12
2018-06-09T07:09:36.209Z,38.43
2018-06-09T07:10:36.157Z,39.32
2018-06-09T07:11:36.109Z,38.91
2018-06-09T07:12:36.026Z,38.64
2018-06-09T07:13:35.969Z,38.43
2018-06-09T07:14:35.913Z,38.43
2018-06-09T07:15:35.853Z,38.45
2018-06-09T07:16:35.801Z,37.28
2018-06-09T07:17:35.748Z,37.19
2018-06-09T07:18:35.681Z,35.62
2018-06-09T07:19:35.620Z,34.45
2018-06-09T07:20:35.556Z,34.27
2018-06-09T07:21:35.494Z,32.23
2018-06-09T07:22:35.447Z,30.00
2018-06-09T07:23:35.383Z,25.94
2018-06-09T07:24:35.321Z,25.54
2018-06-09T07:25:35.255Z,24.58
2018-06-09T07:26:35.196Z,25.54
2018-06-09T07:27:35.154Z,26.90
2018-06-09T07:28:35.071Z,27.00
2018-06-09T07:29:35.016Z,27.31
2018-06-09T07:30:34.970Z,26.52
2018-06-09T07:31:34.899Z,26.72
2018-06-09T07:32:34.839Z,24.87
2018-06-09T07:33:34.765Z,25.55
2018-06-09T07:34:34.715Z,26.32
2018-06-09T07:35:34.657Z,26.81
2018-06-09T07:36:34.611Z,26.32
2018-06-09T07:37:34.533Z,26.32
2018-06-09T07:38:34.474Z,29.99
2018-06-09T07:39:34.409Z,30.76
2018-06-09T07:40:34.363Z,31.44
2018-06-09T07:41:34.296Z,30.94
2018-06-09T07:42:34.231Z,29.88
2018-06-09T07:43:34.174Z,28.52
2018-06-09T07:44:34.119Z,27.36
2018-06-09T07:45:34.048Z,27.08
2018-06-09T07:46:33.996Z,27.09
2018-06-09T07:47:33.932Z,28.92
2018-06-09T07:48:33.871Z,30.08
2018-06-09T07:49:33.811Z,28.73
2018-06-09T07:50:33.738Z,29.22
2018-06-09T07:51:33.686Z,29.61
2018-06-09T07:52:33.610Z,32.04
2018-06-09T07:53:33.558Z,32.91
2018-06-09T07:54:33.498Z,32.92
2018-06-09T07:55:33.430Z,33.80
2018-06-09T07:56:33.397Z,34.57
2018-06-09T07:57:33.317Z,34.86
2018-06-09T07:58:33.255Z,38.45
2018-06-09T07:59:33.229Z,39.53
2018-06-09T08:00:33.151Z,40.89
2018-06-09T08:01:33.085Z,40.89
2018-06-09T08:02:33.016Z,42.54
2018-06-09T08:03:32.958Z,44.76
2018-06-09T08:04:32.899Z,45.81
2018-06-09T08:05:32.845Z,45.90
2018-06-09T08:06:32.788Z,45.61
2018-06-09T08:07:32.735Z,45.51
2018-06-09T08:08:32.658Z,45.81
2018-06-09T08:09:32.603Z,45.03
2018-06-09T08:10:32.537Z,44.45
2018-06-09T08:11:32.471Z,44.45
2018-06-09T08:12:32.406Z,44.16
2018-06-09T08:13:32.350Z,44.35
2018-06-09T08:14:32.284Z,44.16
2018-06-09T08:15:32.243Z,43.68
2018-06-09T08:16:32.168Z,43.38
2018-06-09T08:17:32.136Z,46.09
2018-06-09T08:18:32.046Z,47.74
2018-06-09T08:19:32.052Z,48.42
2018-06-09T08:20:31.944Z,48.03
2018-06-09T08:21:31.894Z,49.46
2018-06-09T08:22:31.808Z,49.37
2018-06-09T08:23:31.752Z,49.58
2018-06-09T08:24:31.684Z,50.24
2018-06-09T08:25:31.618Z,49.95
2018-06-09T08:26:31.612Z,50.14
2018-06-09T08:27:31.511Z,50.14
2018-06-09T08:28:31.442Z,50.65
2018-06-09T08:29:31.395Z,50.84
2018-06-09T08:30:31.316Z,50.16
2018-06-09T08:31:31.276Z,50.94
2018-06-09T08:32:31.212Z,50.84
2018-06-09T08:33:31.143Z,51.13
2018-06-09T08:34:31.094Z,51.04
2018-06-09T08:35:31.082Z,51.74
2018-06-09T08:36:30.981Z,51.54
2018-06-09T08:37:30.907Z,51.74
2018-06-09T08:38:30.841Z,51.47
2018-06-09T08:39:30.786Z,52.12
2018-06-09T08:40:30.730Z,52.73
2018-06-09T08:41:30.671Z,52.83
2018-06-09T08:42:30.598Z,52.80
2018-06-09T08:43:30.537Z,53.09
2018-06-09T08:44:30.486Z,53.22
2018-06-09T08:45:30.431Z,53.22
2018-06-09T08:46:30.369Z,53.41
2018-06-09T08:47:30.309Z,53.02
2018-06-09T08:48:30.249Z,53.12
2018-06-09T08:49:30.193Z,53.22
2018-06-09T08:50:30.125Z,54.19
2018-06-09T08:51:30.068Z,53.99
2018-06-09T08:52:30.015Z,54.26
2018-06-09T08:53:29.938Z,54.16
2018-06-09T08:54:29.899Z,54.09
2018-06-09T08:55:29.835Z,53.80
2018-06-09T08:56:29.771Z,54.06
2018-06-09T08:57:29.743Z,53.99
2018-06-09T08:58:29.663Z,54.19
2018-06-09T08:59:29.597Z,55.04
2018-06-09T09:00:29.527Z,54.77
2018-06-09T09:01:29.470Z,54.86
2018-06-09T09:02:29.408Z,54.86
2018-06-09T09:03:29.358Z,55.26
2018-06-09T09:04:29.302Z,54.86
2018-06-09T09:05:29.224Z,55.54
2018-06-09T09:06:29.189Z,55.83
2018-06-09T09:07:29.123Z,55.74
2018-06-09T09:08:29.066Z,55.54
2018-06-09T09:09:29.048Z,55.83
2018-06-09T09:10:28.929Z,56.41
2018-06-09T09:11:28.874Z,56.90
2018-06-09T09:12:28.814Z,56.61
2018-06-09T09:13:28.767Z,57.19
2018-06-09T09:14:28.698Z,56.71
2018-06-09T09:15:28.633Z,56.32
2018-06-09T09:16:28.613Z,56.51
2018-06-09T09:17:28.524Z,56.41
2018-06-09T09:18:28.453Z,57.29
2018-06-09T09:19:28.431Z,56.51
2018-06-09T09:20:28.339Z,56.32
2018-06-09T09:21:28.280Z,56.61
2018-06-09T09:22:28.214Z,56.51
2018-06-09T09:23:28.157Z,56.90
2018-06-09T09:24:28.102Z,56.90
2018-06-09T09:25:28.040Z,56.32
2018-06-09T09:26:27.984Z,56.49
2018-06-09T09:27:27.920Z,56.87
2018-06-09T09:28:27.879Z,56.77
2018-06-09T09:29:27.799Z,58.23
2018-06-09T09:30:27.779Z,57.84
2018-06-09T09:31:27.683Z,58.23
2018-06-09T09:32:27.627Z,58.23
2018-06-09T09:33:27.575Z,58.23
2018-06-09T09:34:27.498Z,58.62
2018-06-09T09:35:27.435Z,58.98
2018-06-09T09:36:27.381Z,59.20
2018-06-09T09:37:27.320Z,59.30
2018-06-09T09:38:27.253Z,59.20
2018-06-09T09:39:27.206Z,59.49
2018-06-09T09:40:27.134Z,58.81
2018-06-09T09:41:27.080Z,58.52
2018-06-09T09:42:27.023Z,58.81
2018-06-09T09:43:26.960Z,59.39
2018-06-09T09:44:26.903Z,59.49
2018-06-09T09:45:26.823Z,59.59
2018-06-09T09:46:26.780Z,58.62
2018-06-09T09:47:26.721Z,58.81
2018-06-09T09:48:26.669Z,58.33
2018-06-09T09:49:26.596Z,58.81
2018-06-09T09:50:26.529Z,58.14
2018-06-09T09:51:26.475Z,57.45
2018-06-09T09:52:26.418Z,56.97
2018-06-09T09:53:26.348Z,57.45
2018-06-09T09:54:26.298Z,56.90
2018-06-09T09:55:26.232Z,56.97
2018-06-09T09:56:26.181Z,56.87
2018-06-09T09:57:26.118Z,56.49
2018-06-09T09:58:26.049Z,56.61
2018-06-09T09:59:25.998Z,57.07
2018-06-09T10:00:25.931Z,57.00
2018-06-09T10:01:25.868Z,56.51
2018-06-09T10:02:25.805Z,56.81
2018-06-09T10:03:25.790Z,58.23
2018-06-09T10:04:25.684Z,58.04
2018-06-09T10:05:25.623Z,57.78
2018-06-09T10:06:25.572Z,57.48
2018-06-09T10:07:25.520Z,57.29
2018-06-09T10:08:25.446Z,56.41
2018-06-09T10:09:25.385Z,57.09
2018-06-09T10:10:25.320Z,56.23
2018-06-09T10:11:25.273Z,56.03
2018-06-09T10:12:25.205Z,54.96
2018-06-09T10:13:25.139Z,54.21
2018-06-09T10:14:25.115Z,53.53
2018-06-09T10:15:25.025Z,53.53
2018-06-09T10:16:24.973Z,53.47
2018-06-09T10:17:24.917Z,53.56
2018-06-09T10:18:24.842Z,54.34
2018-06-09T10:19:24.778Z,54.63
2018-06-09T10:20:24.729Z,55.31
2018-06-09T10:21:24.678Z,54.82
2018-06-09T10:22:24.603Z,54.63
2018-06-09T10:23:24.548Z,54.72
2018-06-09T10:24:24.598Z,55.21
2018-06-09T10:25:24.452Z,54.63
2018-06-09T10:26:24.365Z,54.63
2018-06-09T10:27:24.294Z,54.53
2018-06-09T10:28:24.259Z,54.14
2018-06-09T10:29:24.180Z,54.05
2018-06-09T10:30:24.137Z,54.80
2018-06-09T10:31:24.077Z,55.67
2018-06-09T10:32:24.009Z,56.64
2018-06-09T10:33:23.961Z,57.32
2018-06-09T10:34:23.905Z,57.12
2018-06-09T10:35:23.834Z,56.74
2018-06-09T10:36:23.774Z,56.64
2018-06-09T10:37:23.712Z,56.05
2018-06-09T10:38:23.670Z,56.15
2018-06-09T10:39:23.599Z,56.54
2018-06-09T10:40:23.526Z,57.03
2018-06-09T10:41:23.478Z,56.41
2018-06-09T10:42:23.413Z,56.51
2018-06-09T10:43:23.347Z,56.74
2018-06-09T10:44:23.302Z,57.03
2018-06-09T10:45:23.232Z,56.81
2018-06-09T10:46:23.182Z,56.93
2018-06-09T10:47:23.117Z,55.67
2018-06-09T10:48:23.056Z,56.15
2018-06-09T10:49:22.994Z,55.64
2018-06-09T10:50:22.936Z,56.71
2018-06-09T10:51:22.879Z,57.48
2018-06-09T10:52:22.821Z,57.19
2018-06-09T10:53:22.785Z,57.70
2018-06-09T10:54:22.702Z,57.68
2018-06-09T10:55:22.633Z,57.68
2018-06-09T10:56:22.575Z,58.48
2018-06-09T10:57:22.502Z,58.36
2018-06-09T10:58:22.458Z,58.45
2018-06-09T10:59:22.390Z,58.67
2018-06-09T11:00:22.328Z,59.33
2018-06-09T11:01:22.276Z,59.94
2018-06-09T11:02:22.206Z,60.30
2018-06-09T11:03:22.138Z,60.32
2018-06-09T11:04:22.093Z,59.94
2018-06-09T11:05:22.036Z,61.10
2018-06-09T11:06:21.967Z,61.19
2018-06-09T11:07:21.909Z,61.39
2018-06-09T11:08:21.887Z,61.94
2018-06-09T11:09:21.795Z,61.78
2018-06-09T11:10:21.717Z,62.85
2018-06-09T11:11:21.662Z,62.46
2018-06-09T11:12:21.603Z,61.88
2018-06-09T11:13:21.537Z,61.29
2018-06-09T11:14:21.471Z,60.81
2018-06-09T11:15:21.423Z,61.19
2018-06-09T11:16:21.371Z,61.19
2018-06-09T11:17:21.302Z,61.49
2018-06-09T11:18:21.291Z,61.58
2018-06-09T11:19:21.172Z,61.78
2018-06-09T11:20:21.110Z,61.78
2018-06-09T11:21:21.051Z,62.55
2018-06-09T11:22:20.997Z,63.13
2018-06-09T11:23:20.974Z,63.23
2018-06-09T11:24:20.899Z,63.91
2018-06-09T11:25:20.810Z,63.72
2018-06-09T11:26:20.764Z,64.37
2018-06-09T11:27:20.704Z,64.50
2018-06-09T11:28:20.642Z,64.27
2018-06-09T11:29:20.569Z,63.20
2018-06-09T11:30:20.506Z,62.33
2018-06-09T11:31:20.443Z,62.43
2018-06-09T11:32:20.398Z,61.65
2018-06-09T11:33:20.346Z,61.75
2018-06-09T11:34:20.262Z,62.33
2018-06-09T11:35:20.215Z,62.33
2018-06-09T11:36:20.142Z,61.65
2018-06-09T11:37:20.094Z,61.85
2018-06-09T11:38:20.032Z,62.04
2018-06-09T11:39:19.971Z,61.78
2018-06-09T11:40:19.912Z,63.10
2018-06-09T11:41:19.893Z,63.13
2018-06-09T11:42:19.804Z,62.75
2018-06-09T11:43:19.740Z,63.23
2018-06-09T11:44:19.653Z,63.43
2018-06-09T11:45:19.605Z,63.33
2018-06-09T11:46:19.540Z,63.33
2018-06-09T11:47:19.482Z,63.82
2018-06-09T11:48:19.461Z,63.36
2018-06-09T11:49:19.366Z,63.53
2018-06-09T11:50:19.338Z,63.23
2018-06-09T11:51:19.242Z,63.04
2018-06-09T11:52:19.182Z,63.43
2018-06-09T11:53:19.116Z,61.19
2018-06-09T11:54:19.066Z,61.68
2018-06-09T11:55:18.984Z,62.49
2018-06-09T11:56:18.922Z,62.65
2018-06-09T11:57:18.927Z,61.81
2018-06-09T11:58:18.813Z,62.68
2018-06-09T11:59:18.754Z,62.59
2018-06-09T12:00:18.685Z,61.91
2018-06-09T12:01:18.640Z,61.32
2018-06-09T12:02:18.576Z,60.64
2018-06-09T12:03:18.525Z,60.84
2018-06-09T12:04:18.443Z,61.61
2018-06-09T12:05:18.389Z,61.32
2018-06-09T12:06:18.333Z,61.71
2018-06-09T12:07:18.273Z,60.87
2018-06-09T12:08:18.213Z,60.94
2018-06-09T12:09:18.157Z,61.71
2018-06-09T12:10:18.097Z,62.01
2018-06-09T12:11:18.036Z,61.91
2018-06-09T12:12:17.970Z,60.94
2018-06-09T12:13:17.905Z,61.16
2018-06-09T12:14:17.850Z,60.25
2018-06-09T12:15:17.780Z,60.68
2018-06-09T12:16:17.718Z,59.80
2018-06-09T12:17:17.672Z,60.00
2018-06-09T12:18:17.611Z,59.31
2018-06-09T12:19:17.542Z,58.41
2018-06-09T12:20:17.489Z,57.93
2018-06-09T12:21:17.433Z,58.12
2018-06-09T12:22:17.370Z,58.22
2018-06-09T12:23:17.305Z,58.70
2018-06-09T12:24:17.243Z,58.80
2018-06-09T12:25:17.189Z,58.70
2018-06-09T12:26:17.123Z,58.41
2018-06-09T12:27:17.084Z,58.12
2018-06-09T12:28:17.023Z,58.12
2018-06-09T12:29:16.956Z,57.47
2018-06-09T12:30:16.876Z,57.67
2018-06-09T12:31:16.835Z,57.67
2018-06-09T12:32:16.774Z,57.08
2018-06-09T12:33:16.707Z,57.47
2018-06-09T12:34:16.645Z,57.37
2018-06-09T12:35:16.587Z,57.44
2018-06-09T12:36:16.527Z,57.67
2018-06-09T12:37:16.461Z,57.47
2018-06-09T12:38:16.407Z,57.47
2018-06-09T12:39:16.383Z,57.67
2018-06-09T12:40:16.291Z,57.47
2018-06-09T12:41:16.223Z,57.57
2018-06-09T12:42:16.166Z,58.44
2018-06-09T12:43:16.109Z,58.54
2018-06-09T12:44:16.057Z,59.51
2018-06-09T12:45:15.978Z,59.70
2018-06-09T12:46:15.924Z,59.70
2018-06-09T12:47:15.865Z,60.19
2018-06-09T12:48:15.813Z,60.00
2018-06-09T12:49:15.744Z,59.80
2018-06-09T12:50:15.682Z,60.19
2018-06-09T12:51:15.633Z,60.25
2018-06-09T12:52:15.572Z,60.06
2018-06-09T12:53:15.515Z,59.58
2018-06-09T12:54:15.473Z,59.58
2018-06-09T12:55:15.402Z,60.25